Time;durP1;ratioP1;P1;durP2;ratioP2;P2;SDS_P1;SDS_P2;PMS_P1;PMS_P2;Temp;Humidity;BMP_temperature;BMP_pressure;BME280_temperature;BME280_humidity;BME280_pressure;Samples;Min_cycle;Max_cycle;Signal;HPM_P1;HPM_P2
2021/08/03 00:00:16;;;;;;;;;;;17.60;92.70;;;;;;4330628;33;44308;-84
2021/08/03 00:02:44;;;;;;;;;;;17.60;92.70;;;;;;4330028;33;45779;-84
2021/08/03 00:05:17;;;;;;;;;;;17.50;92.70;;;;;;4330230;33;45533;-84
2021/08/03 00:07:49;;;;;;;;;;;17.50;92.70;;;;;;4329358;33;44887;-83
2021/08/03 00:10:20;;;;;;;;;;;17.60;92.80;;;;;;4330652;33;45226;-84
2021/08/03 00:12:51;;;;;;;;;;;17.50;92.80;;;;;;4329185;33;44310;-85
2021/08/03 00:15:19;;;;;;;;;;;17.50;92.80;;;;;;4317509;33;43078;-84
2021/08/03 00:17:47;;;;;;;;;;;17.50;92.80;;;;;;4329567;33;45397;-84
2021/08/03 00:20:17;;;;;;;;;;;17.60;92.80;;;;;;4330692;33;44397;-83
2021/08/03 00:22:44;;;;;;;;;;;17.50;92.80;;;;;;4324078;33;45797;-83
2021/08/03 00:25:11;;;;;;;;;;;17.50;92.80;;;;;;4317473;33;44224;-83
2021/08/03 00:27:42;;;;;;;;;;;17.50;92.80;;;;;;4328968;33;44978;-83
2021/08/03 00:30:10;;;;;;;;;;;17.50;92.80;;;;;;4330344;33;43711;-84
2021/08/03 00:32:38;;;;;;;;;;;17.50;92.80;;;;;;4317414;33;45259;-84
2021/08/03 00:35:06;;;;;;;;;;;17.50;92.90;;;;;;4329548;33;44718;-84
2021/08/03 00:37:34;;;;;;;;;;;17.50;92.90;;;;;;4320016;33;43469;-84
2021/08/03 00:40:02;;;;;;;;;;;17.50;92.90;;;;;;4320117;33;43256;-84
2021/08/03 00:42:30;;;;;;;;;;;17.50;92.90;;;;;;4320368;33;44239;-84
2021/08/03 00:44:58;;;;;;;;;;;17.50;92.90;;;;;;4333022;33;43478;-84
2021/08/03 00:47:27;;;;;;;;;;;17.50;93.00;;;;;;4333437;33;45488;-84
2021/08/03 00:49:54;;;;;;;;;;;17.50;93.00;;;;;;4319910;33;44121;-83
2021/08/03 00:52:22;;;;;;;;;;;17.50;93.00;;;;;;4332182;33;45266;-83
2021/08/03 00:54:49;;;;;;;;;;;17.50;93.00;;;;;;4320135;33;42088;-84
2021/08/03 00:57:16;;;;;;;;;;;17.50;93.10;;;;;;4332041;33;45470;-83
2021/08/03 00:59:43;;;;;;;;;;;17.50;93.10;;;;;;4333106;33;43426;-83
2021/08/03 01:02:10;;;;;;;;;;;17.50;93.10;;;;;;4319814;33;44948;-84
2021/08/03 01:04:38;;;;;;;;;;;17.50;93.10;;;;;;4319690;33;44900;-84
2021/08/03 01:07:05;;;;;;;;;;;17.40;93.10;;;;;;4333150;33;44174;-83
2021/08/03 01:09:51;;;;;;;;;;;17.50;93.10;;;;;;4333210;33;43265;-83
2021/08/03 01:12:41;;;;;;;;;;;17.50;93.20;;;;;;4320018;33;43748;-84
2021/08/03 01:15:15;;;;;;;;;;;17.50;93.20;;;;;;4299109;33;42258;-84
2021/08/03 01:17:54;;;;;;;;;;;17.50;93.20;;;;;;4331493;33;43475;-84
2021/08/03 01:20:26;;;;;;;;;;;17.40;93.20;;;;;;4332623;33;42588;-84
2021/08/03 01:23:12;;;;;;;;;;;17.40;93.20;;;;;;4333194;33;44865;-84
2021/08/03 01:25:44;;;;;;;;;;;17.40;93.20;;;;;;4332597;33;45777;-84
2021/08/03 01:28:17;;;;;;;;;;;17.40;93.20;;;;;;4333006;33;44286;-83
2021/08/03 01:30:46;;;;;;;;;;;17.40;93.30;;;;;;4333504;33;20033;-83
2021/08/03 01:33:14;;;;;;;;;;;17.40;93.30;;;;;;4332368;33;43850;-82
2021/08/03 01:35:45;;;;;;;;;;;17.40;93.30;;;;;;4332849;33;44754;-82
2021/08/03 01:38:13;;;;;;;;;;;17.40;93.30;;;;;;4319645;33;43461;-81
2021/08/03 01:40:42;;;;;;;;;;;17.40;93.30;;;;;;4331603;33;44216;-81
2021/08/03 01:43:09;;;;;;;;;;;17.40;93.40;;;;;;4319544;33;44502;-81
2021/08/03 01:45:37;;;;;;;;;;;17.40;93.40;;;;;;4331563;33;43484;-81
2021/08/03 01:48:05;;;;;;;;;;;17.40;93.40;;;;;;4331674;33;43161;-81
2021/08/03 01:50:35;;;;;;;;;;;17.40;93.40;;;;;;4331717;33;44047;-82
2021/08/03 01:53:03;;;;;;;;;;;17.40;93.40;;;;;;4332083;33;42390;-82
2021/08/03 01:55:31;;;;;;;;;;;17.40;93.40;;;;;;4331025;33;44081;-81
2021/08/03 01:57:59;;;;;;;;;;;17.40;93.40;;;;;;4318822;33;44132;-81
2021/08/03 02:00:27;;;;;;;;;;;17.40;93.40;;;;;;4331459;33;45403;-82
2021/08/03 02:02:54;;;;;;;;;;;17.40;93.40;;;;;;4331058;33;44276;-81
2021/08/03 02:05:22;;;;;;;;;;;17.40;93.40;;;;;;4332420;33;44176;-82
2021/08/03 02:07:52;;;;;;;;;;;17.30;93.40;;;;;;4331972;33;44216;-82
2021/08/03 02:10:23;;;;;;;;;;;17.30;93.40;;;;;;4332455;33;44147;-82
2021/08/03 02:12:50;;;;;;;;;;;17.40;93.40;;;;;;4331975;33;43984;-81
2021/08/03 02:15:20;;;;;;;;;;;17.30;93.50;;;;;;4318852;33;43084;-82
2021/08/03 02:17:47;;;;;;;;;;;17.30;93.50;;;;;;4331694;33;43320;-82
2021/08/03 02:20:14;;;;;;;;;;;17.30;93.50;;;;;;4331256;33;43156;-82
2021/08/03 02:22:43;;;;;;;;;;;17.30;93.50;;;;;;4332173;33;45421;-81
2021/08/03 02:25:14;;;;;;;;;;;17.30;93.50;;;;;;4331676;33;44380;-82
2021/08/03 02:27:44;;;;;;;;;;;17.30;93.50;;;;;;4331168;33;42758;-82
2021/08/03 02:30:11;;;;;;;;;;;17.30;93.60;;;;;;4330758;33;45248;-82
2021/08/03 02:32:44;;;;;;;;;;;17.30;93.60;;;;;;4318880;33;45434;-82
2021/08/03 02:35:16;;;;;;;;;;;17.30;93.60;;;;;;4331031;33;45660;-82
2021/08/03 02:37:47;;;;;;;;;;;17.30;93.60;;;;;;4330793;33;45275;-82
2021/08/03 02:40:15;;;;;;;;;;;17.30;93.60;;;;;;4318782;33;44978;-82
2021/08/03 02:42:43;;;;;;;;;;;17.30;93.60;;;;;;4331460;33;42879;-82
2021/08/03 02:45:12;;;;;;;;;;;17.30;93.60;;;;;;4318195;33;45377;-82
2021/08/03 02:47:48;;;;;;;;;;;17.30;93.60;;;;;;4330218;33;45557;-82
2021/08/03 02:50:16;;;;;;;;;;;17.30;93.60;;;;;;4330269;33;44295;-82
2021/08/03 02:52:44;;;;;;;;;;;17.30;93.60;;;;;;4331613;33;42837;-82
2021/08/03 02:55:17;;;;;;;;;;;17.30;93.60;;;;;;4331525;33;43458;-81
2021/08/03 02:57:45;;;;;;;;;;;17.30;93.60;;;;;;4331571;33;44077;-81
2021/08/03 03:00:13;;;;;;;;;;;17.30;93.70;;;;;;4331701;33;43706;-81
2021/08/03 03:02:41;;;;;;;;;;;17.30;93.70;;;;;;4330780;33;20002;-81
2021/08/03 03:05:18;;;;;;;;;;;17.30;93.70;;;;;;4318555;33;43562;-81
2021/08/03 03:07:49;;;;;;;;;;;17.30;93.70;;;;;;4331581;33;44101;-81
2021/08/03 03:10:20;;;;;;;;;;;17.30;93.70;;;;;;4318308;33;44728;-81
2021/08/03 03:12:56;;;;;;;;;;;17.30;93.70;;;;;;4330868;33;45752;-81
2021/08/03 03:15:24;;;;;;;;;;;17.20;93.70;;;;;;4317845;33;44441;-82
2021/08/03 03:17:51;;;;;;;;;;;17.30;93.70;;;;;;4329715;33;45796;-81
2021/08/03 03:20:19;;;;;;;;;;;17.20;93.70;;;;;;4330905;33;44266;-82
2021/08/03 03:22:47;;;;;;;;;;;17.30;93.70;;;;;;4331376;33;42622;-81
2021/08/03 03:25:19;;;;;;;;;;;17.30;93.70;;;;;;4330148;33;44411;-81
2021/08/03 03:27:48;;;;;;;;;;;17.30;93.70;;;;;;4331058;33;43979;-81
2021/08/03 03:30:16;;;;;;;;;;;17.30;93.70;;;;;;4330810;33;43199;-81
2021/08/03 03:32:44;;;;;;;;;;;17.20;93.70;;;;;;4330715;33;20096;-81
2021/08/03 03:35:13;;;;;;;;;;;17.20;93.70;;;;;;4330706;33;44192;-81
2021/08/03 03:37:41;;;;;;;;;;;17.20;93.70;;;;;;4329491;33;44914;-81
2021/08/03 03:40:09;;;;;;;;;;;17.20;93.70;;;;;;4331008;33;42890;-81
2021/08/03 03:42:36;;;;;;;;;;;17.20;93.70;;;;;;4330652;33;44954;-81
2021/08/03 03:45:04;;;;;;;;;;;17.20;93.70;;;;;;4330810;33;43037;-81
2021/08/03 03:47:33;;;;;;;;;;;17.20;93.70;;;;;;4331059;33;44882;-81
2021/08/03 03:50:02;;;;;;;;;;;17.20;93.70;;;;;;4329454;33;43253;-81
2021/08/03 03:52:32;;;;;;;;;;;17.20;93.80;;;;;;4329870;33;45946;-81
2021/08/03 03:55:01;;;;;;;;;;;17.20;93.70;;;;;;4330939;33;44809;-82
2021/08/03 03:57:29;;;;;;;;;;;17.20;93.80;;;;;;4330711;33;46009;-82
2021/08/03 03:59:57;;;;;;;;;;;17.20;93.80;;;;;;4329477;33;43901;-81
2021/08/03 04:02:26;;;;;;;;;;;17.20;93.80;;;;;;4329165;33;44304;-81
2021/08/03 04:04:57;;;;;;;;;;;17.20;94.10;;;;;;4329393;33;44230;-81
2021/08/03 04:07:24;;;;;;;;;;;17.20;93.70;;;;;;4317864;33;44624;-79
2021/08/03 04:10:00;;;;;;;;;;;17.20;93.80;;;;;;4330673;33;44835;-79
2021/08/03 04:12:27;;;;;;;;;;;17.10;93.80;;;;;;4329606;33;44394;-79
2021/08/03 04:14:54;;;;;;;;;;;17.10;93.80;;;;;;4324726;33;44369;-78
2021/08/03 04:17:21;;;;;;;;;;;17.10;93.90;;;;;;4317491;33;44828;-79
2021/08/03 04:19:53;;;;;;;;;;;17.10;93.90;;;;;;4330702;33;44003;-80
2021/08/03 04:22:26;;;;;;;;;;;17.10;93.80;;;;;;4330231;33;44568;-80
2021/08/03 04:25:07;;;;;;;;;;;17.10;93.90;;;;;;4317258;33;44122;-80
2021/08/03 04:27:42;;;;;;;;;;;17.10;93.90;;;;;;4330634;33;45030;-80
2021/08/03 04:30:15;;;;;;;;;;;17.10;93.90;;;;;;4318064;33;45900;-81
2021/08/03 04:32:53;;;;;;;;;;;17.10;93.90;;;;;;4329476;33;45458;-79
2021/08/03 04:35:34;;;;;;;;;;;17.10;93.90;;;;;;4318040;33;20036;-80
2021/08/03 04:38:15;;;;;;;;;;;17.10;93.90;;;;;;4317259;33;44214;-80
2021/08/03 04:40:50;;;;;;;;;;;17.10;94.00;;;;;;4316776;33;45122;-80
2021/08/03 04:43:26;;;;;;;;;;;17.00;93.90;;;;;;4317282;33;45257;-80
2021/08/03 04:46:07;;;;;;;;;;;17.00;94.00;;;;;;4329489;33;45128;-79
2021/08/03 04:48:46;;;;;;;;;;;17.00;93.90;;;;;;4317392;33;43900;-80
2021/08/03 04:51:27;;;;;;;;;;;17.10;94.00;;;;;;4329267;33;42953;-81
2021/08/03 04:54:04;;;;;;;;;;;17.00;94.00;;;;;;4317365;33;44483;-81
2021/08/03 04:56:34;;;;;;;;;;;17.00;94.00;;;;;;4330519;33;43490;-81
2021/08/03 04:59:06;;;;;;;;;;;17.00;94.00;;;;;;4317183;33;45839;-80
2021/08/03 05:01:41;;;;;;;;;;;17.00;94.00;;;;;;4329236;33;42792;-81
2021/08/03 05:04:20;;;;;;;;;;;17.00;94.00;;;;;;4316584;33;45358;-80
2021/08/03 05:06:58;;;;;;;;;;;17.00;94.00;;;;;;4324309;33;19997;-81
2021/08/03 05:09:33;;;;;;;;;;;17.00;94.00;;;;;;4317144;33;46058;-80
2021/08/03 05:12:08;;;;;;;;;;;17.00;94.00;;;;;;4330183;33;45147;-81
2021/08/03 05:14:44;;;;;;;;;;;17.00;93.90;;;;;;4330342;33;46016;-81
2021/08/03 05:17:25;;;;;;;;;;;17.00;94.00;;;;;;4329012;33;45077;-81
2021/08/03 05:19:58;;;;;;;;;;;17.00;94.00;;;;;;4317144;33;44763;-80
2021/08/03 05:22:33;;;;;;;;;;;17.00;94.00;;;;;;4330309;33;44492;-80
2021/08/03 05:25:00;;;;;;;;;;;17.00;94.00;;;;;;4320068;33;45971;-81
2021/08/03 05:27:36;;;;;;;;;;;17.00;94.00;;;;;;4331761;33;45864;-81
2021/08/03 05:30:11;;;;;;;;;;;17.00;94.00;;;;;;4319746;33;43025;-80
2021/08/03 05:32:46;;;;;;;;;;;17.00;94.00;;;;;;4332905;33;43542;-81
2021/08/03 05:35:21;;;;;;;;;;;17.00;94.10;;;;;;4319597;33;44655;-81
2021/08/03 05:37:54;;;;;;;;;;;17.00;94.10;;;;;;4327288;33;20001;-80
2021/08/03 05:40:24;;;;;;;;;;;17.00;94.00;;;;;;4331657;33;45981;-81
2021/08/03 05:43:05;;;;;;;;;;;16.90;94.00;;;;;;4331646;33;44347;-80
2021/08/03 05:45:43;;;;;;;;;;;16.90;94.00;;;;;;4319492;33;44516;-81
2021/08/03 05:48:18;;;;;;;;;;;16.90;94.10;;;;;;4331341;33;42631;-81
2021/08/03 05:50:55;;;;;;;;;;;17.00;94.10;;;;;;4319589;33;45733;-81
2021/08/03 05:53:25;;;;;;;;;;;16.90;94.10;;;;;;4331563;33;46089;-80
2021/08/03 05:56:01;;;;;;;;;;;16.90;94.10;;;;;;4319453;33;45024;-80
2021/08/03 05:58:39;;;;;;;;;;;16.90;94.10;;;;;;4332388;33;45944;-80
2021/08/03 06:01:12;;;;;;;;;;;16.90;94.20;;;;;;4318762;33;45088;-80
2021/08/03 06:03:53;;;;;;;;;;;16.90;94.20;;;;;;4330764;33;44272;-79
2021/08/03 06:06:33;;;;;;;;;;;16.90;94.20;;;;;;4319397;33;44279;-80
2021/08/03 06:09:20;;;;;;;;;;;16.90;94.20;;;;;;4319883;33;20544;-80
2021/08/03 06:12:02;;;;;;;;;;;16.90;94.20;;;;;;4319150;33;44788;-81
2021/08/03 06:14:42;;;;;;;;;;;16.90;94.20;;;;;;4319150;33;43878;-81
2021/08/03 06:17:18;;;;;;;;;;;16.90;94.20;;;;;;4319096;33;46078;-80
2021/08/03 06:19:49;;;;;;;;;;;16.90;94.20;;;;;;4331202;33;45816;-81
2021/08/03 06:22:18;;;;;;;;;;;16.90;94.30;;;;;;4331302;33;42499;-81
2021/08/03 06:24:49;;;;;;;;;;;16.90;94.30;;;;;;4331098;33;43477;-81
2021/08/03 06:27:21;;;;;;;;;;;16.90;94.30;;;;;;4318901;33;43725;-81
2021/08/03 06:29:53;;;;;;;;;;;16.80;94.30;;;;;;4331251;33;37014;-81
2021/08/03 06:32:22;;;;;;;;;;;16.90;94.30;;;;;;4332202;33;44022;-81
2021/08/03 06:34:55;;;;;;;;;;;16.90;94.40;;;;;;4318707;33;44444;-81
2021/08/03 06:37:34;;;;;;;;;;;16.90;94.40;;;;;;4330892;33;45583;-81
2021/08/03 06:40:13;;;;;;;;;;;16.90;94.40;;;;;;4332834;33;20386;-81
2021/08/03 06:42:46;;;;;;;;;;;16.90;94.40;;;;;;4330920;33;44469;-82
2021/08/03 06:45:16;;;;;;;;;;;16.90;94.40;;;;;;4318838;33;43186;-81
2021/08/03 06:47:43;;;;;;;;;;;16.90;94.40;;;;;;4318629;33;44004;-81
2021/08/03 06:50:14;;;;;;;;;;;16.90;94.40;;;;;;4331316;33;42603;-81
2021/08/03 06:52:50;;;;;;;;;;;16.90;94.50;;;;;;4330587;33;44949;-81
2021/08/03 06:55:21;;;;;;;;;;;16.90;94.50;;;;;;4330626;33;45027;-81
2021/08/03 06:57:52;;;;;;;;;;;16.90;94.50;;;;;;4318784;33;45338;-82
2021/08/03 07:00:23;;;;;;;;;;;16.90;94.50;;;;;;4330562;33;45228;-82
2021/08/03 07:02:53;;;;;;;;;;;16.90;94.50;;;;;;4318065;33;44145;-82
2021/08/03 07:05:30;;;;;;;;;;;16.90;94.50;;;;;;4318065;33;44075;-80
2021/08/03 07:07:58;;;;;;;;;;;16.90;94.60;;;;;;4331581;33;45733;-81
2021/08/03 07:10:30;;;;;;;;;;;16.90;94.60;;;;;;4318553;33;21121;-81
2021/08/03 07:13:03;;;;;;;;;;;16.80;94.60;;;;;;4317919;33;44279;-81
2021/08/03 07:15:36;;;;;;;;;;;16.80;94.60;;;;;;4318277;33;45710;-82
2021/08/03 07:18:04;;;;;;;;;;;16.80;94.60;;;;;;4330467;33;45388;-81
2021/08/03 07:20:34;;;;;;;;;;;16.80;94.60;;;;;;4317942;33;42888;-82
2021/08/03 07:23:01;;;;;;;;;;;16.90;94.70;;;;;;4330154;33;44150;-82
2021/08/03 07:25:31;;;;;;;;;;;16.90;94.70;;;;;;4318053;33;43481;-82
2021/08/03 07:28:01;;;;;;;;;;;16.80;94.70;;;;;;4330219;33;44533;-82
2021/08/03 07:30:28;;;;;;;;;;;16.90;94.70;;;;;;4329806;33;43474;-82
2021/08/03 07:32:58;;;;;;;;;;;16.90;94.70;;;;;;4317983;33;44849;-82
2021/08/03 07:35:31;;;;;;;;;;;16.90;94.70;;;;;;4329606;33;44217;-82
2021/08/03 07:37:58;;;;;;;;;;;16.90;94.70;;;;;;4331220;33;46104;-82
2021/08/03 07:40:26;;;;;;;;;;;16.90;94.70;;;;;;4330428;33;19989;-83
2021/08/03 07:42:53;;;;;;;;;;;16.90;94.80;;;;;;4331172;33;45381;-82
2021/08/03 07:45:23;;;;;;;;;;;16.80;94.70;;;;;;4330682;33;44714;-82
2021/08/03 07:47:51;;;;;;;;;;;16.90;94.70;;;;;;4329460;33;42969;-82
2021/08/03 07:50:19;;;;;;;;;;;16.80;94.70;;;;;;4317310;33;45387;-83
2021/08/03 07:52:46;;;;;;;;;;;16.90;94.70;;;;;;4329461;33;45323;-83
2021/08/03 07:55:13;;;;;;;;;;;16.90;94.70;;;;;;4317778;33;43471;-82
2021/08/03 07:57:40;;;;;;;;;;;16.90;94.80;;;;;;4329769;33;46095;-82
2021/08/03 08:00:07;;;;;;;;;;;16.90;94.80;;;;;;4317309;33;44599;-82
2021/08/03 08:02:34;;;;;;;;;;;16.90;94.80;;;;;;4329167;33;45419;-83
2021/08/03 08:05:03;;;;;;;;;;;16.90;94.80;;;;;;4317668;33;43823;-82
2021/08/03 08:07:33;;;;;;;;;;;16.90;94.90;;;;;;4329258;33;43491;-83
2021/08/03 08:10:06;;;;;;;;;;;16.90;94.90;;;;;;4317535;33;44147;-83
2021/08/03 08:12:42;;;;;;;;;;;16.90;94.90;;;;;;4329845;33;45579;-83
2021/08/03 08:15:18;;;;;;;;;;;16.90;94.90;;;;;;4329681;33;44499;-83
2021/08/03 08:17:46;;;;;;;;;;;16.90;94.90;;;;;;4330834;33;44006;-83
2021/08/03 08:20:13;;;;;;;;;;;16.90;94.90;;;;;;4329705;33;44394;-83
2021/08/03 08:22:41;;;;;;;;;;;16.90;94.90;;;;;;4330562;33;43737;-83
2021/08/03 08:25:18;;;;;;;;;;;16.90;95.00;;;;;;4329060;33;44842;-82
2021/08/03 08:27:46;;;;;;;;;;;16.90;95.00;;;;;;4329452;33;44765;-83
2021/08/03 08:30:14;;;;;;;;;;;16.90;95.00;;;;;;4329440;33;45809;-82
2021/08/03 08:32:43;;;;;;;;;;;16.90;95.00;;;;;;4316831;33;44096;-83
2021/08/03 08:35:30;;;;;;;;;;;16.90;95.00;;;;;;4329693;33;45285;-83
2021/08/03 08:37:58;;;;;;;;;;;16.90;95.00;;;;;;4329083;33;43422;-83
2021/08/03 08:40:29;;;;;;;;;;;16.90;95.00;;;;;;4329961;33;43455;-83
2021/08/03 08:42:56;;;;;;;;;;;16.90;95.00;;;;;;4329308;33;45950;-83
2021/08/03 08:45:26;;;;;;;;;;;16.90;95.10;;;;;;4317580;33;45761;-84
2021/08/03 08:47:53;;;;;;;;;;;16.90;95.10;;;;;;4329452;33;45136;-83
2021/08/03 08:50:21;;;;;;;;;;;16.90;95.10;;;;;;4329025;33;43773;-83
2021/08/03 08:52:56;;;;;;;;;;;16.90;95.10;;;;;;4329342;33;45447;-83
2021/08/03 08:55:25;;;;;;;;;;;16.90;95.10;;;;;;4328923;33;43114;-83
2021/08/03 08:57:52;;;;;;;;;;;16.90;95.10;;;;;;4318523;33;44062;-83
2021/08/03 09:00:23;;;;;;;;;;;16.90;95.10;;;;;;4331615;33;44730;-83
2021/08/03 09:02:52;;;;;;;;;;;16.90;95.10;;;;;;4332168;33;44586;-84
2021/08/03 09:05:25;;;;;;;;;;;16.90;95.10;;;;;;4319953;33;42270;-84
2021/08/03 09:07:53;;;;;;;;;;;16.90;95.10;;;;;;4320116;33;45881;-84
2021/08/03 09:10:40;;;;;;;;;;;16.90;95.10;;;;;;4320644;33;44481;-83
2021/08/03 09:13:23;;;;;;;;;;;16.90;95.10;;;;;;4320596;33;44104;-83
2021/08/03 09:16:00;;;;;;;;;;;16.90;95.10;;;;;;4332086;33;45709;-84
2021/08/03 09:18:30;;;;;;;;;;;16.90;95.00;;;;;;4332077;33;44448;-84
2021/08/03 09:21:04;;;;;;;;;;;16.90;95.00;;;;;;4319523;33;46218;-83
2021/08/03 09:23:41;;;;;;;;;;;16.90;95.00;;;;;;4331986;33;45879;-84
2021/08/03 09:26:10;;;;;;;;;;;16.90;95.00;;;;;;4319534;33;44863;-84
2021/08/03 09:29:00;;;;;;;;;;;16.90;95.00;;;;;;4331330;33;45643;-84
2021/08/03 09:31:36;;;;;;;;;;;16.90;95.10;;;;;;4332921;33;45768;-84
2021/08/03 09:34:11;;;;;;;;;;;16.90;95.10;;;;;;4331990;33;45804;-84
2021/08/03 09:36:49;;;;;;;;;;;16.90;95.10;;;;;;4331823;33;46103;-84
2021/08/03 09:39:37;;;;;;;;;;;16.90;95.10;;;;;;4331761;33;45344;-84
2021/08/03 09:42:23;;;;;;;;;;;16.90;95.10;;;;;;4319074;33;44832;-84
2021/08/03 09:44:51;;;;;;;;;;;16.90;95.10;;;;;;4331803;33;46234;-85
2021/08/03 09:47:27;;;;;;;;;;;16.90;95.10;;;;;;4320324;33;42775;-85
2021/08/03 09:49:59;;;;;;;;;;;16.90;95.10;;;;;;4331669;33;44456;-84
2021/08/03 09:52:27;;;;;;;;;;;16.90;95.10;;;;;;4319446;33;43284;-84
2021/08/03 09:55:11;;;;;;;;;;;16.90;95.10;;;;;;4330975;33;46308;-84
2021/08/03 09:57:39;;;;;;;;;;;16.90;95.10;;;;;;4332606;33;43936;-85
2021/08/03 10:00:29;;;;;;;;;;;16.90;95.10;;;;;;4319387;33;44888;-84
2021/08/03 10:02:56;;;;;;;;;;;16.90;95.10;;;;;;4331038;33;45339;-84
2021/08/03 10:05:24;;;;;;;;;;;16.90;95.10;;;;;;4332699;33;44320;-84
2021/08/03 10:07:51;;;;;;;;;;;16.90;95.10;;;;;;4331047;33;43482;-85
2021/08/03 10:10:19;;;;;;;;;;;16.90;95.10;;;;;;4318597;33;44194;-84
2021/08/03 10:12:46;;;;;;;;;;;16.90;95.10;;;;;;4332415;33;43765;-84
2021/08/03 10:15:13;;;;;;;;;;;16.90;95.10;;;;;;4331046;33;44127;-85
2021/08/03 10:17:44;;;;;;;;;;;16.90;95.10;;;;;;4318606;33;44349;-85
2021/08/03 10:20:14;;;;;;;;;;;16.90;95.10;;;;;;4331203;33;44224;-86
2021/08/03 10:22:44;;;;;;;;;;;16.90;95.10;;;;;;4319044;33;44022;-86
2021/08/03 10:25:12;;;;;;;;;;;16.90;95.10;;;;;;4331074;33;43750;-86
2021/08/03 10:27:40;;;;;;;;;;;16.90;95.20;;;;;;4318913;33;44290;-85
2021/08/03 10:30:09;;;;;;;;;;;16.90;95.10;;;;;;4330599;33;43482;-85
2021/08/03 10:32:42;;;;;;;;;;;16.90;95.10;;;;;;4319235;33;45450;-85
2021/08/03 10:35:17;;;;;;;;;;;16.90;95.10;;;;;;4318956;33;44212;-85
2021/08/03 10:37:57;;;;;;;;;;;16.90;95.10;;;;;;4318341;33;44736;-85
2021/08/03 10:40:45;;;;;;;;;;;16.90;95.10;;;;;;4318655;33;43750;-85
2021/08/03 10:43:27;;;;;;;;;;;16.90;95.10;;;;;;4318133;33;46351;-84
2021/08/03 10:46:06;;;;;;;;;;;17.00;95.10;;;;;;4331410;33;20363;-85
2021/08/03 10:48:53;;;;;;;;;;;17.00;95.10;;;;;;4318528;33;43906;-84
2021/08/03 10:51:22;;;;;;;;;;;17.00;95.10;;;;;;4330640;33;45569;-84
2021/08/03 10:53:55;;;;;;;;;;;17.00;95.10;;;;;;4318179;33;45845;-84
2021/08/03 10:56:28;;;;;;;;;;;17.00;95.10;;;;;;4318536;33;45693;-84
2021/08/03 10:59:19;;;;;;;;;;;17.00;95.10;;;;;;4318649;33;45014;-84
2021/08/03 11:01:49;;;;;;;;;;;17.00;95.10;;;;;;4320762;33;46272;-84
2021/08/03 11:04:36;;;;;;;;;;;17.00;95.10;;;;;;4318085;33;45076;-83
2021/08/03 11:07:22;;;;;;;;;;;17.00;95.10;;;;;;4318616;33;43666;-84
2021/08/03 11:09:55;;;;;;;;;;;17.00;95.00;;;;;;4331359;33;44822;-84
2021/08/03 11:12:40;;;;;;;;;;;17.00;95.00;;;;;;4331677;33;45118;-84
2021/08/03 11:15:24;;;;;;;;;;;17.00;95.00;;;;;;4318341;33;44785;-84
2021/08/03 11:17:55;;;;;;;;;;;17.00;95.00;;;;;;4318351;33;45596;-84
2021/08/03 11:20:38;;;;;;;;;;;17.10;95.00;;;;;;4329779;33;43139;-84
2021/08/03 11:23:13;;;;;;;;;;;17.10;95.00;;;;;;4318177;33;45727;-84
2021/08/03 11:25:42;;;;;;;;;;;17.10;95.00;;;;;;4330383;33;45952;-84
2021/08/03 11:28:11;;;;;;;;;;;17.10;95.00;;;;;;4331269;33;43950;-84
2021/08/03 11:30:43;;;;;;;;;;;17.10;95.00;;;;;;4317621;33;44173;-84
2021/08/03 11:33:16;;;;;;;;;;;17.10;94.90;;;;;;4330269;33;44048;-84
2021/08/03 11:35:43;;;;;;;;;;;17.10;94.90;;;;;;4318199;33;46106;-84
2021/08/03 11:38:12;;;;;;;;;;;17.10;94.90;;;;;;4330842;33;43187;-83
2021/08/03 11:40:42;;;;;;;;;;;17.10;94.90;;;;;;4331060;33;45561;-83
2021/08/03 11:43:12;;;;;;;;;;;17.10;94.90;;;;;;4329894;33;43976;-83
2021/08/03 11:45:45;;;;;;;;;;;17.10;94.90;;;;;;4329464;33;43894;-84
2021/08/03 11:48:27;;;;;;;;;;;17.10;94.90;;;;;;4318491;33;20056;-84
2021/08/03 11:51:01;;;;;;;;;;;17.10;94.90;;;;;;4330040;33;43280;-84
2021/08/03 11:53:34;;;;;;;;;;;17.20;94.90;;;;;;4317373;33;44251;-85
2021/08/03 11:56:10;;;;;;;;;;;17.20;94.90;;;;;;4329908;33;43967;-84
2021/08/03 11:58:42;;;;;;;;;;;17.20;94.90;;;;;;4330895;33;44623;-84
2021/08/03 12:01:41;;;;;;;;;;;17.20;94.90;;;;;;4329815;33;45702;-85
2021/08/03 12:04:15;;;;;;;;;;;17.20;94.90;;;;;;4329272;33;44108;-85
2021/08/03 12:06:43;;;;;;;;;;;17.20;94.90;;;;;;4330058;33;44614;-85
2021/08/03 12:09:12;;;;;;;;;;;17.20;94.90;;;;;;4330605;33;45381;-85
2021/08/03 12:11:42;;;;;;;;;;;17.30;94.90;;;;;;4330855;33;42986;-85
2021/08/03 12:14:15;;;;;;;;;;;17.30;94.90;;;;;;4317104;33;44026;-86
2021/08/03 12:16:51;;;;;;;;;;;17.30;94.90;;;;;;4329603;33;45912;-86
2021/08/03 12:19:42;;;;;;;;;;;17.30;94.90;;;;;;4330455;33;20037;-85
2021/08/03 12:22:42;;;;;;;;;;;17.30;94.90;;;;;;4317490;33;44663;-85
2021/08/03 12:25:17;;;;;;;;;;;17.40;94.80;;;;;;4329439;33;45727;-84
2021/08/03 12:27:48;;;;;;;;;;;17.40;94.80;;;;;;4324873;33;43474;-85
2021/08/03 12:30:34;;;;;;;;;;;17.40;94.80;;;;;;4329444;33;45400;-85
2021/08/03 12:33:07;;;;;;;;;;;17.40;94.80;;;;;;4329190;33;44126;-84
2021/08/03 12:35:39;;;;;;;;;;;17.40;94.80;;;;;;4329763;33;43407;-83
2021/08/03 12:38:21;;;;;;;;;;;17.40;94.80;;;;;;4316800;33;46612;-85
2021/08/03 12:40:59;;;;;;;;;;;17.40;94.80;;;;;;4329116;33;43707;-84
2021/08/03 12:43:43;;;;;;;;;;;17.40;94.80;;;;;;4317147;33;43894;-85
2021/08/03 12:46:22;;;;;;;;;;;17.50;94.80;;;;;;4329112;33;45781;-84
2021/08/03 12:48:52;;;;;;;;;;;17.50;94.80;;;;;;4312090;33;43342;-84
2021/08/03 12:51:25;;;;;;;;;;;17.50;94.80;;;;;;4329134;33;44418;-84
2021/08/03 12:54:14;;;;;;;;;;;17.50;94.80;;;;;;4317263;33;45382;-84
2021/08/03 12:57:12;;;;;;;;;;;17.50;94.80;;;;;;4329177;33;44601;-84
2021/08/03 12:59:47;;;;;;;;;;;17.60;94.90;;;;;;4329465;33;43426;-84
2021/08/03 13:02:15;;;;;;;;;;;17.60;94.80;;;;;;4329361;33;44518;-84
2021/08/03 13:04:44;;;;;;;;;;;17.60;94.70;;;;;;4316795;33;43944;-83
2021/08/03 13:07:13;;;;;;;;;;;17.60;94.70;;;;;;4328984;33;43906;-84
2021/08/03 13:09:41;;;;;;;;;;;17.60;94.70;;;;;;4330303;33;45701;-84
2021/08/03 13:12:10;;;;;;;;;;;17.70;94.70;;;;;;4329825;33;43269;-84
2021/08/03 13:14:37;;;;;;;;;;;17.70;94.70;;;;;;4317244;33;43177;-84
2021/08/03 13:17:05;;;;;;;;;;;17.70;94.70;;;;;;4330170;33;43460;-84
2021/08/03 13:19:33;;;;;;;;;;;17.70;94.70;;;;;;4328903;33;43454;-84
2021/08/03 13:22:03;;;;;;;;;;;17.70;94.60;;;;;;4329637;33;45991;-84
2021/08/03 13:24:30;;;;;;;;;;;17.70;94.60;;;;;;4329294;33;45828;-84
2021/08/03 13:26:57;;;;;;;;;;;17.80;94.70;;;;;;4330067;33;46164;-84
2021/08/03 13:29:26;;;;;;;;;;;17.80;94.70;;;;;;4328647;33;44476;-84
2021/08/03 13:31:54;;;;;;;;;;;17.80;94.60;;;;;;4316854;33;45547;-84
2021/08/03 13:34:23;;;;;;;;;;;17.80;94.60;;;;;;4329998;33;42677;-84
2021/08/03 13:36:53;;;;;;;;;;;17.80;94.60;;;;;;4330025;33;45025;-84
2021/08/03 13:39:20;;;;;;;;;;;17.80;94.60;;;;;;4317115;33;43721;-84
2021/08/03 13:41:50;;;;;;;;;;;17.90;94.60;;;;;;4329036;33;43430;-84
2021/08/03 13:44:17;;;;;;;;;;;17.90;94.60;;;;;;4317534;33;44113;-84
2021/08/03 13:46:44;;;;;;;;;;;17.90;94.60;;;;;;4331257;33;43116;-84
2021/08/03 13:49:11;;;;;;;;;;;17.90;94.60;;;;;;4332851;33;43248;-85
2021/08/03 13:51:38;;;;;;;;;;;17.90;94.60;;;;;;4319552;33;43946;-84
2021/08/03 13:54:06;;;;;;;;;;;17.90;94.60;;;;;;4332543;33;43537;-84
2021/08/03 13:56:34;;;;;;;;;;;18.00;94.60;;;;;;4332701;33;44116;-83
2021/08/03 13:59:02;;;;;;;;;;;18.00;94.60;;;;;;4332098;33;44038;-85
2021/08/03 14:01:29;;;;;;;;;;;18.10;94.70;;;;;;4332515;33;44825;-83
2021/08/03 14:03:59;;;;;;;;;;;18.10;94.60;;;;;;4330750;33;43989;-84
2021/08/03 14:06:26;;;;;;;;;;;18.10;94.60;;;;;;4332721;33;44340;-83
2021/08/03 14:08:53;;;;;;;;;;;18.10;94.60;;;;;;4331472;33;43873;-83
2021/08/03 14:11:21;;;;;;;;;;;18.10;94.50;;;;;;4332409;33;43914;-83
2021/08/03 14:13:49;;;;;;;;;;;18.10;94.50;;;;;;4332409;33;42692;-84
2021/08/03 14:16:17;;;;;;;;;;;18.20;94.50;;;;;;4318834;33;43284;-84
2021/08/03 14:18:44;;;;;;;;;;;18.20;94.40;;;;;;4330987;33;42623;-84
2021/08/03 14:21:11;;;;;;;;;;;18.20;94.50;;;;;;4332230;33;45646;-84
2021/08/03 14:23:38;;;;;;;;;;;18.30;94.40;;;;;;4318989;33;45385;-83
2021/08/03 14:26:05;;;;;;;;;;;18.30;94.40;;;;;;4332114;33;44630;-83
2021/08/03 14:28:32;;;;;;;;;;;18.30;94.40;;;;;;4331668;33;45047;-83
2021/08/03 14:30:59;;;;;;;;;;;18.30;94.40;;;;;;4330696;33;44914;-85
2021/08/03 14:33:26;;;;;;;;;;;18.30;94.40;;;;;;4332169;33;45707;-83
2021/08/03 14:35:53;;;;;;;;;;;18.40;94.40;;;;;;4331761;33;43458;-84
2021/08/03 14:38:21;;;;;;;;;;;18.40;94.30;;;;;;4333338;33;20029;-84
2021/08/03 14:40:48;;;;;;;;;;;18.40;94.10;;;;;;4318350;33;42595;-84
2021/08/03 14:43:17;;;;;;;;;;;18.40;94.00;;;;;;4330884;33;43429;-84